Time;durP1;ratioP1;P1;durP2;ratioP2;P2;SDS_P1;SDS_P2;PMS_P1;PMS_P2;Temp;Humidity;BMP_temperature;BMP_pressure;BME280_temperature;BME280_humidity;BME280_pressure;Samples;Min_cycle;Max_cycle;Signal;HPM_P1;HPM_P2
2022/12/31 00:01:20;;;;;;;;;;;;;;;;;;5020726;28;21514;-67
2022/12/31 00:03:45;;;;;;;;;;;;;;;;;;5027409;28;19921;-66
2022/12/31 00:06:11;;;;;;;;;;;;;;;;;;5005390;28;20702;-67
2022/12/31 00:08:39;;;;;;;;;;;;;;;;;;5006762;28;19924;-66
2022/12/31 00:11:05;;;;;;;;;;;;;;;;;;5025582;28;19999;-66
2022/12/31 00:13:30;;;;;;;;;;;;;;;;;;5023028;28;19928;-65
2022/12/31 00:15:58;;;;;;;;;;;;;;;;;;5025155;28;19921;-64
2022/12/31 00:18:23;;;;;;;;;;;;;;;;;;5001332;28;19920;-64
2022/12/31 00:20:51;;;;;;;;;;;;;;;;;;5005358;28;19939;-64
2022/12/31 00:23:16;;;;;;;;;;;;;;;;;;4984686;28;19968;-65
2022/12/31 00:25:49;;;;;;;;;;;;;;;;;;5005959;28;20013;-66
2022/12/31 00:28:17;;;;;;;;;;;;;;;;;;5007379;28;19917;-66
2022/12/31 00:30:43;;;;;;;;;;;;;;;;;;5004101;28;21484;-64
2022/12/31 00:33:08;;;;;;;;;;;;;;;;;;5006549;28;19925;-68
2022/12/31 00:35:39;;;;;;;;;;;;;;;;;;5025997;28;19936;-65
2022/12/31 00:38:06;;;;;;;;;;;;;;;;;;5024630;28;19917;-66
2022/12/31 00:40:34;;;;;;;;;;;;;;;;;;5026002;28;21471;-67
2022/12/31 00:42:59;;;;;;;;;;;;;;;;;;5006236;28;20372;-66
2022/12/31 00:45:25;;;;;;;;;;;;;;;;;;5024940;28;20068;-68
2022/12/31 00:47:51;;;;;;;;;;;;;;;;;;5023835;28;19920;-64
2022/12/31 00:50:16;;;;;;;;;;;;;;;;;;4985701;28;19959;-66
2022/12/31 00:52:44;;;;;;;;;;;;;;;;;;5025636;28;20910;-67
2022/12/31 00:55:09;;;;;;;;;;;;;;;;;;5006154;28;20370;-67
2022/12/31 00:57:35;;;;;;;;;;;;;;;;;;5006121;28;20207;-66
2022/12/31 01:00:22;;;;;;;;;;;;;;;;;;5023884;28;19943;-66
2022/12/31 01:02:47;;;;;;;;;;;;;;;;;;4997296;28;19917;-67
2022/12/31 01:05:23;;;;;;;;;;;;;;;;;;5006371;28;19928;-65
2022/12/31 01:07:52;;;;;;;;;;;;;;;;;;5004597;28;19931;-67
2022/12/31 01:13:02;;;;;;;;;;;;;;;;;;5025027;28;19920;-66
2022/12/31 01:15:31;;;;;;;;;;;;;;;;;;5021315;28;19942;-67
2022/12/31 01:17:56;;;;;;;;;;;;;;;;;;5026212;28;19920;-67
2022/12/31 01:20:26;;;;;;;;;;;;;;;;;;5003837;28;20508;-66
2022/12/31 01:22:52;;;;;;;;;;;;;;;;;;5005502;28;19932;-68
2022/12/31 01:25:17;;;;;;;;;;;;;;;;;;5005499;28;20274;-66
2022/12/31 01:27:42;;;;;;;;;;;;;;;;;;5005581;28;19925;-67
2022/12/31 01:30:07;;;;;;;;;;;;;;;;;;5022783;28;19924;-68
2022/12/31 01:32:35;;;;;;;;;;;;;;;;;;4988514;28;20654;-66
2022/12/31 01:35:02;;;;;;;;;;;;;;;;;;4987669;28;19917;-67
2022/12/31 01:37:34;;;;;;;;;;;;;;;;;;4981258;28;20395;-67
2022/12/31 01:40:01;;;;;;;;;;;;;;;;;;4986203;28;20027;-68
2022/12/31 01:42:27;;;;;;;;;;;;;;;;;;5024217;28;19921;-66
2022/12/31 01:44:53;;;;;;;;;;;;;;;;;;5021688;28;19978;-66
2022/12/31 01:47:18;;;;;;;;;;;;;;;;;;5001652;28;21810;-68
2022/12/31 01:49:44;;;;;;;;;;;;;;;;;;5002166;28;20478;-67
2022/12/31 01:52:10;;;;;;;;;;;;;;;;;;5006363;28;19931;-68
2022/12/31 01:54:35;;;;;;;;;;;;;;;;;;5023177;28;20538;-68
2022/12/31 01:57:00;;;;;;;;;;;;;;;;;;5004623;28;19932;-68
2022/12/31 01:59:29;;;;;;;;;;;;;;;;;;5003910;28;19925;-66
2022/12/31 02:01:57;;;;;;;;;;;;;;;;;;5022652;28;20036;-69
2022/12/31 02:04:25;;;;;;;;;;;;;;;;;;5004288;28;19920;-67
2022/12/31 02:06:51;;;;;;;;;;;;;;;;;;5020643;28;20166;-67
2022/12/31 02:09:16;;;;;;;;;;;;;;;;;;5003128;28;19979;-68
2022/12/31 02:11:41;;;;;;;;;;;;;;;;;;5022579;28;19916;-68
2022/12/31 02:14:07;;;;;;;;;;;;;;;;;;5002657;28;20002;-68
2022/12/31 02:16:36;;;;;;;;;;;;;;;;;;5001897;28;20228;-68
2022/12/31 02:19:01;;;;;;;;;;;;;;;;;;5020856;28;20002;-67
2022/12/31 02:21:26;;;;;;;;;;;;;;;;;;4987102;28;20869;-71
2022/12/31 02:23:54;;;;;;;;;;;;;;;;;;5023171;28;19965;-68
2022/12/31 02:26:19;;;;;;;;;;;;;;;;;;5003455;28;19925;-68
2022/12/31 02:28:45;;;;;;;;;;;;;;;;;;5015410;28;19975;-68
2022/12/31 02:34:13;;;;;;;;;;;;;;;;;;4999966;28;20164;-67
2022/12/31 02:36:39;;;;;;;;;;;;;;;;;;5004708;28;19932;-68
2022/12/31 02:39:06;;;;;;;;;;;;;;;;;;5004028;28;19921;-68
2022/12/31 02:41:53;;;;;;;;;;;;;;;;;;4988855;28;20030;-69
2022/12/31 02:44:18;;;;;;;;;;;;;;;;;;4985437;28;20013;-68
2022/12/31 02:46:45;;;;;;;;;;;;;;;;;;5003604;28;19932;-67
2022/12/31 02:49:11;;;;;;;;;;;;;;;;;;5022181;28;19920;-68
2022/12/31 02:51:36;;;;;;;;;;;;;;;;;;5001146;28;20849;-68
2022/12/31 02:54:01;;;;;;;;;;;;;;;;;;5023154;28;19952;-68
2022/12/31 02:56:29;;;;;;;;;;;;;;;;;;4986776;28;19924;-68
2022/12/31 03:04:32;;;;;;;;;;;;;;;;;;5002690;28;19927;-67
2022/12/31 03:06:59;;;;;;;;;;;;;;;;;;5020864;28;20733;-68
2022/12/31 03:09:25;;;;;;;;;;;;;;;;;;5002663;28;19921;-68
2022/12/31 03:14:37;;;;;;;;;;;;;;;;;;5019002;28;20754;-70
2022/12/31 03:17:05;;;;;;;;;;;;;;;;;;5000058;28;19924;-68
2022/12/31 03:22:30;;;;;;;;;;;;;;;;;;4971890;28;20568;-69
2022/12/31 03:28:12;;;;;;;;;;;;;;;;;;5022153;28;19952;-68
2022/12/31 03:30:52;;;;;;;;;;;;;;;;;;5000901;28;20399;-70
2022/12/31 03:33:18;;;;;;;;;;;;;;;;;;5001481;28;20346;-68
2022/12/31 03:35:43;;;;;;;;;;;;;;;;;;5002699;28;19928;-68
2022/12/31 03:38:08;;;;;;;;;;;;;;;;;;5002989;28;19916;-68
2022/12/31 03:40:33;;;;;;;;;;;;;;;;;;5017539;28;20013;-69
2022/12/31 03:42:59;;;;;;;;;;;;;;;;;;5020842;28;19944;-68
2022/12/31 03:45:27;;;;;;;;;;;;;;;;;;4985137;28;19963;-68
2022/12/31 03:47:56;;;;;;;;;;;;;;;;;;5022048;28;19924;-68
2022/12/31 03:50:23;;;;;;;;;;;;;;;;;;5000310;28;19928;-68
2022/12/31 03:52:49;;;;;;;;;;;;;;;;;;5002252;28;19924;-68
2022/12/31 03:55:14;;;;;;;;;;;;;;;;;;5024504;28;19921;-69
2022/12/31 03:57:39;;;;;;;;;;;;;;;;;;5024213;28;19917;-67
2022/12/31 04:00:07;;;;;;;;;;;;;;;;;;5006270;28;20072;-69
2022/12/31 04:02:35;;;;;;;;;;;;;;;;;;5025014;28;19928;-69
2022/12/31 04:05:01;;;;;;;;;;;;;;;;;;5017740;28;19921;-69
2022/12/31 04:07:26;;;;;;;;;;;;;;;;;;5007095;28;19932;-68
2022/12/31 04:09:54;;;;;;;;;;;;;;;;;;5003779;28;19916;-69
2022/12/31 04:12:20;;;;;;;;;;;;;;;;;;5025636;28;20647;-69
2022/12/31 04:14:46;;;;;;;;;;;;;;;;;;5004118;28;20279;-68
2022/12/31 04:17:14;;;;;;;;;;;;;;;;;;5004673;28;20684;-69
2022/12/31 04:19:42;;;;;;;;;;;;;;;;;;5004872;28;19970;-69
2022/12/31 04:22:07;;;;;;;;;;;;;;;;;;5025537;28;19920;-68
2022/12/31 04:24:32;;;;;;;;;;;;;;;;;;4989162;28;19932;-69
2022/12/31 04:27:00;;;;;;;;;;;;;;;;;;5003291;28;19991;-69
2022/12/31 04:29:26;;;;;;;;;;;;;;;;;;5005043;28;19927;-67
2022/12/31 04:31:54;;;;;;;;;;;;;;;;;;5025301;28;20350;-69
2022/12/31 04:34:19;;;;;;;;;;;;;;;;;;5023978;28;19921;-68
2022/12/31 04:36:45;;;;;;;;;;;;;;;;;;5001624;28;20059;-68
2022/12/31 04:39:12;;;;;;;;;;;;;;;;;;5005202;28;19925;-68
2022/12/31 04:41:40;;;;;;;;;;;;;;;;;;5024866;28;19931;-70
2022/12/31 04:44:05;;;;;;;;;;;;;;;;;;5005122;28;19925;-68
2022/12/31 04:46:31;;;;;;;;;;;;;;;;;;5024623;28;20411;-68
2022/12/31 04:48:56;;;;;;;;;;;;;;;;;;5005001;28;19998;-68
2022/12/31 04:51:22;;;;;;;;;;;;;;;;;;5004380;28;19994;-69
2022/12/31 04:53:47;;;;;;;;;;;;;;;;;;5005198;28;20546;-69
2022/12/31 04:56:13;;;;;;;;;;;;;;;;;;5024779;28;20558;-68
2022/12/31 04:58:41;;;;;;;;;;;;;;;;;;4984096;28;19921;-69
2022/12/31 05:01:08;;;;;;;;;;;;;;;;;;4987581;28;20703;-70
2022/12/31 05:03:34;;;;;;;;;;;;;;;;;;5002815;28;19983;-69
2022/12/31 05:05:59;;;;;;;;;;;;;;;;;;5003924;28;20019;-68
2022/12/31 05:08:25;;;;;;;;;;;;;;;;;;5025139;28;19921;-68
2022/12/31 05:10:51;;;;;;;;;;;;;;;;;;4998804;28;20368;-68
2022/12/31 05:13:16;;;;;;;;;;;;;;;;;;4988374;28;19927;-68
2022/12/31 05:15:41;;;;;;;;;;;;;;;;;;5002419;28;19921;-68
2022/12/31 05:18:07;;;;;;;;;;;;;;;;;;4996717;28;20032;-68
2022/12/31 05:20:32;;;;;;;;;;;;;;;;;;5021477;28;20215;-68
2022/12/31 05:22:57;;;;;;;;;;;;;;;;;;4999789;28;20351;-68
2022/12/31 05:25:23;;;;;;;;;;;;;;;;;;5003608;28;19921;-68
2022/12/31 05:27:48;;;;;;;;;;;;;;;;;;5023152;28;19927;-68
2022/12/31 05:30:25;;;;;;;;;;;;;;;;;;5002670;28;20050;-68
2022/12/31 05:32:53;;;;;;;;;;;;;;;;;;5024182;28;19994;-68
2022/12/31 05:35:19;;;;;;;;;;;;;;;;;;5001937;28;20012;-68
2022/12/31 05:37:47;;;;;;;;;;;;;;;;;;5024176;28;19920;-67
2022/12/31 05:40:13;;;;;;;;;;;;;;;;;;5004261;28;20361;-68
2022/12/31 05:42:38;;;;;;;;;;;;;;;;;;5004401;28;19928;-69
2022/12/31 05:45:04;;;;;;;;;;;;;;;;;;5003243;28;19924;-69
2022/12/31 05:47:29;;;;;;;;;;;;;;;;;;5019954;28;19940;-68
2022/12/31 05:49:54;;;;;;;;;;;;;;;;;;4985424;28;20419;-69
2022/12/31 05:52:22;;;;;;;;;;;;;;;;;;5003492;28;20010;-67
2022/12/31 05:55:06;;;;;;;;;;;;;;;;;;5021826;28;19921;-68
2022/12/31 05:57:34;;;;;;;;;;;;;;;;;;5022213;28;20019;-69
2022/12/31 06:00:01;;;;;;;;;;;;;;;;;;5002275;28;19920;-68
2022/12/31 06:02:27;;;;;;;;;;;;;;;;;;5019893;28;20039;-67
2022/12/31 06:04:52;;;;;;;;;;;;;;;;;;4984063;28;19917;-67
2022/12/31 06:07:18;;;;;;;;;;;;;;;;;;5019311;28;20858;-68
2022/12/31 06:09:43;;;;;;;;;;;;;;;;;;5001517;28;20407;-67
2022/12/31 06:12:09;;;;;;;;;;;;;;;;;;5004267;28;20404;-67
2022/12/31 06:14:34;;;;;;;;;;;;;;;;;;5001544;28;20006;-67
2022/12/31 06:17:00;;;;;;;;;;;;;;;;;;4996232;28;20401;-68
2022/12/31 06:19:25;;;;;;;;;;;;;;;;;;5000182;28;19971;-68
2022/12/31 06:21:53;;;;;;;;;;;;;;;;;;5002021;28;19921;-67
2022/12/31 06:24:20;;;;;;;;;;;;;;;;;;5003299;28;19981;-66
2022/12/31 06:26:46;;;;;;;;;;;;;;;;;;5003672;28;20407;-67
2022/12/31 06:29:11;;;;;;;;;;;;;;;;;;5001230;28;19920;-65
2022/12/31 06:31:39;;;;;;;;;;;;;;;;;;4988020;28;20058;-67
2022/12/31 06:34:04;;;;;;;;;;;;;;;;;;5001497;28;20314;-67
2022/12/31 06:36:31;;;;;;;;;;;;;;;;;;5002704;28;19986;-66
2022/12/31 06:38:59;;;;;;;;;;;;;;;;;;5002014;28;19920;-65
2022/12/31 06:41:27;;;;;;;;;;;;;;;;;;5018949;28;19925;-65
2022/12/31 06:43:52;;;;;;;;;;;;;;;;;;4987441;28;20708;-65
2022/12/31 06:46:21;;;;;;;;;;;;;;;;;;5020855;28;20326;-65
2022/12/31 06:48:47;;;;;;;;;;;;;;;;;;5023684;28;20152;-64
2022/12/31 06:51:12;;;;;;;;;;;;;;;;;;5020648;28;19920;-66
2022/12/31 06:53:40;;;;;;;;;;;;;;;;;;5002912;28;19920;-66
2022/12/31 06:56:07;;;;;;;;;;;;;;;;;;5003397;28;19939;-66
2022/12/31 06:58:33;;;;;;;;;;;;;;;;;;5000830;28;19917;-66
2022/12/31 07:00:59;;;;;;;;;;;;;;;;;;5019979;28;19921;-68
2022/12/31 07:03:25;;;;;;;;;;;;;;;;;;5004189;28;20213;-66
2022/12/31 07:05:50;;;;;;;;;;;;;;;;;;4999254;28;19926;-66
2022/12/31 07:08:16;;;;;;;;;;;;;;;;;;5002804;28;19998;-68
2022/12/31 07:10:43;;;;;;;;;;;;;;;;;;5000936;28;19921;-67
2022/12/31 07:13:09;;;;;;;;;;;;;;;;;;4988092;28;19964;-69
2022/12/31 07:15:36;;;;;;;;;;;;;;;;;;5006644;28;19936;-68
2022/12/31 07:18:05;;;;;;;;;;;;;;;;;;5004682;28;19920;-68
2022/12/31 07:20:30;;;;;;;;;;;;;;;;;;5003937;28;20478;-68
2022/12/31 07:22:55;;;;;;;;;;;;;;;;;;4984769;28;19921;-68
2022/12/31 07:25:23;;;;;;;;;;;;;;;;;;4986016;28;19970;-68
2022/12/31 07:27:53;;;;;;;;;;;;;;;;;;5005734;28;19963;-70
2022/12/31 07:30:18;;;;;;;;;;;;;;;;;;5024832;28;19931;-66
2022/12/31 07:32:47;;;;;;;;;;;;;;;;;;5025873;28;19991;-69
2022/12/31 07:35:15;;;;;;;;;;;;;;;;;;4987883;28;19920;-67
2022/12/31 07:37:42;;;;;;;;;;;;;;;;;;4990150;28;19947;-68
2022/12/31 07:40:07;;;;;;;;;;;;;;;;;;5007386;28;19929;-68
2022/12/31 07:45:52;;;;;;;;;;;;;;;;;;5023364;28;19931;-68
2022/12/31 07:48:20;;;;;;;;;;;;;;;;;;5025840;28;19924;-68
2022/12/31 07:50:46;;;;;;;;;;;;;;;;;;5020996;28;19924;-69
2022/12/31 07:53:14;;;;;;;;;;;;;;;;;;5025408;28;20091;-69
2022/12/31 07:55:40;;;;;;;;;;;;;;;;;;4989689;28;20367;-69
2022/12/31 07:58:07;;;;;;;;;;;;;;;;;;5005697;28;20332;-69
2022/12/31 08:00:35;;;;;;;;;;;;;;;;;;5025294;28;19927;-68
2022/12/31 08:03:02;;;;;;;;;;;;;;;;;;5023723;28;19917;-69
2022/12/31 08:05:30;;;;;;;;;;;;;;;;;;5004966;28;19987;-68
2022/12/31 08:07:55;;;;;;;;;;;;;;;;;;5025118;28;20423;-68
2022/12/31 08:10:21;;;;;;;;;;;;;;;;;;5024816;28;20171;-68
2022/12/31 08:16:08;;;;;;;;;;;;;;;;;;5024817;28;19989;-68
2022/12/31 08:18:36;;;;;;;;;;;;;;;;;;5024413;28;19921;-68
2022/12/31 08:24:18;;;;;;;;;;;;;;;;;;5024676;28;19923;-69
2022/12/31 08:26:43;;;;;;;;;;;;;;;;;;5005507;28;20150;-70
2022/12/31 08:29:09;;;;;;;;;;;;;;;;;;5003871;28;19927;-68
2022/12/31 08:31:34;;;;;;;;;;;;;;;;;;4988086;28;19931;-69
2022/12/31 08:34:01;;;;;;;;;;;;;;;;;;5024815;28;19920;-69
2022/12/31 08:36:29;;;;;;;;;;;;;;;;;;4988809;28;19932;-67
2022/12/31 08:38:55;;;;;;;;;;;;;;;;;;5023075;28;19920;-68
2022/12/31 08:41:23;;;;;;;;;;;;;;;;;;5003823;28;19921;-68
2022/12/31 08:56:02;;;;;;;;;;;;;;;;;;5005129;28;19932;-69
2022/12/31 08:58:30;;;;;;;;;;;;;;;;;;5018117;28;19917;-69
2022/12/31 09:01:00;;;;;;;;;;;;;;;;;;5001140;28;19952;-70
2022/12/31 09:03:29;;;;;;;;;;;;;;;;;;4984722;28;19917;-69
2022/12/31 09:05:57;;;;;;;;;;;;;;;;;;5000608;28;19957;-72
2022/12/31 09:08:24;;;;;;;;;;;;;;;;;;5003909;28;20703;-70
2022/12/31 09:10:55;;;;;;;;;;;;;;;;;;5003161;28;19917;-69
2022/12/31 09:13:20;;;;;;;;;;;;;;;;;;5001030;28;20067;-69
2022/12/31 09:15:48;;;;;;;;;;;;;;;;;;5002339;28;19971;-68
2022/12/31 09:18:14;;;;;;;;;;;;;;;;;;4984618;28;19925;-68
2022/12/31 09:20:42;;;;;;;;;;;;;;;;;;5003401;28;19925;-68
2022/12/31 09:23:07;;;;;;;;;;;;;;;;;;5002784;28;19936;-69
2022/12/31 09:25:33;;;;;;;;;;;;;;;;;;4985907;28;21336;-70
2022/12/31 09:27:58;;;;;;;;;;;;;;;;;;5000273;28;20368;-70
2022/12/31 09:30:26;;;;;;;;;;;;;;;;;;4999876;28;19943;-69
2022/12/31 09:32:51;;;;;;;;;;;;;;;;;;5000054;28;20490;-67
2022/12/31 09:35:19;;;;;;;;;;;;;;;;;;5001157;28;19921;-68
2022/12/31 09:37:45;;;;;;;;;;;;;;;;;;5003154;28;20258;-68
2022/12/31 09:40:10;;;;;;;;;;;;;;;;;;5001832;28;19932;-68
2022/12/31 09:42:35;;;;;;;;;;;;;;;;;;5001649;28;20047;-67
2022/12/31 09:45:03;;;;;;;;;;;;;;;;;;4981364;28;20066;-68
2022/12/31 09:47:29;;;;;;;;;;;;;;;;;;5003310;28;20059;-68
2022/12/31 09:49:55;;;;;;;;;;;;;;;;;;5001289;28;19917;-66
2022/12/31 09:52:25;;;;;;;;;;;;;;;;;;5004102;28;19921;-69
2022/12/31 09:54:50;;;;;;;;;;;;;;;;;;4984004;28;19931;-69
2022/12/31 09:57:15;;;;;;;;;;;;;;;;;;4984945;28;19937;-69
2022/12/31 09:59:41;;;;;;;;;;;;;;;;;;5002913;28;19921;-69
2022/12/31 10:02:07;;;;;;;;;;;;;;;;;;5000672;28;19924;-70
2022/12/31 10:04:33;;;;;;;;;;;;;;;;;;5003250;28;19921;-68
2022/12/31 10:06:58;;;;;;;;;;;;;;;;;;4998246;28;19924;-66
2022/12/31 10:09:23;;;;;;;;;;;;;;;;;;5002858;28;20389;-68
2022/12/31 10:11:51;;;;;;;;;;;;;;;;;;4985071;28;19917;-68
2022/12/31 10:14:16;;;;;;;;;;;;;;;;;;5002393;28;19960;-69
2022/12/31 10:16:44;;;;;;;;;;;;;;;;;;5002084;28;20016;-68
2022/12/31 10:19:09;;;;;;;;;;;;;;;;;;5001149;28;19975;-69
2022/12/31 10:21:34;;;;;;;;;;;;;;;;;;5016454;28;19928;-66
2022/12/31 10:24:00;;;;;;;;;;;;;;;;;;4999517;28;19921;-66
2022/12/31 10:26:25;;;;;;;;;;;;;;;;;;5001760;28;20210;-64
2022/12/31 10:28:51;;;;;;;;;;;;;;;;;;5000265;28;20418;-65
2022/12/31 10:31:18;;;;;;;;;;;;;;;;;;4983588;28;19921;-65
2022/12/31 10:33:44;;;;;;;;;;;;;;;;;;5001179;28;19955;-65
2022/12/31 10:36:09;;;;;;;;;;;;;;;;;;5001378;28;19925;-63
2022/12/31 10:38:34;;;;;;;;;;;;;;;;;;4983345;28;19964;-64
2022/12/31 10:41:00;;;;;;;;;;;;;;;;;;5015290;28;20426;-64
2022/12/31 10:43:28;;;;;;;;;;;;;;;;;;5003629;28;19975;-65
2022/12/31 10:45:58;;;;;;;;;;;;;;;;;;5003060;28;19916;-67
2022/12/31 10:48:26;;;;;;;;;;;;;;;;;;5021228;28;19920;-65
2022/12/31 10:50:51;;;;;;;;;;;;;;;;;;5022898;28;19944;-64
2022/12/31 10:53:17;;;;;;;;;;;;;;;;;;5021563;28;20269;-66
2022/12/31 10:55:45;;;;;;;;;;;;;;;;;;4987354;28;19962;-64
2022/12/31 10:58:10;;;;;;;;;;;;;;;;;;4987421;28;20066;-66
2022/12/31 11:00:35;;;;;;;;;;;;;;;;;;5019511;28;20677;-64
2022/12/31 11:03:01;;;;;;;;;;;;;;;;;;5022941;28;19927;-65
2022/12/31 11:05:29;;;;;;;;;;;;;;;;;;5000947;28;19955;-65
2022/12/31 11:07:54;;;;;;;;;;;;;;;;;;5021453;28;21576;-65
2022/12/31 11:10:22;;;;;;;;;;;;;;;;;;5002091;28;19924;-65
2022/12/31 11:12:48;;;;;;;;;;;;;;;;;;5020827;28;20176;-66
2022/12/31 11:15:14;;;;;;;;;;;;;;;;;;5020154;28;19932;-66
2022/12/31 11:17:40;;;;;;;;;;;;;;;;;;5003193;28;19951;-65
2022/12/31 11:20:08;;;;;;;;;;;;;;;;;;5020605;28;20008;-66
2022/12/31 11:22:36;;;;;;;;;;;;;;;;;;4985508;28;19917;-68
2022/12/31 11:25:01;;;;;;;;;;;;;;;;;;5001731;28;19979;-65
2022/12/31 11:27:27;;;;;;;;;;;;;;;;;;5021108;28;19917;-64
2022/12/31 11:29:53;;;;;;;;;;;;;;;;;;5020989;28;19990;-66
2022/12/31 11:32:20;;;;;;;;;;;;;;;;;;4986073;28;20311;-64
2022/12/31 11:34:48;;;;;;;;;;;;;;;;;;5021024;28;20001;-63
2022/12/31 11:37:15;;;;;;;;;;;;;;;;;;5022606;28;19921;-66
2022/12/31 11:39:40;;;;;;;;;;;;;;;;;;4985305;28;21599;-66
2022/12/31 11:42:10;;;;;;;;;;;;;;;;;;5022036;28;19929;-66
2022/12/31 11:44:36;;;;;;;;;;;;;;;;;;5000053;28;19974;-68
2022/12/31 11:47:16;;;;;;;;;;;;;;;;;;5002708;28;20373;-65
2022/12/31 11:49:43;;;;;;;;;;;;;;;;;;4982812;28;19971;-64
2022/12/31 11:52:11;;;;;;;;;;;;;;;;;;5022298;28;19921;-64
2022/12/31 11:54:40;;;;;;;;;;;;;;;;;;5015042;28;20289;-68
2022/12/31 11:57:06;;;;;;;;;;;;;;;;;;5021356;28;19928;-65
2022/12/31 11:59:31;;;;;;;;;;;;;;;;;;5001662;28;19944;-66
2022/12/31 12:01:57;;;;;;;;;;;;;;;;;;5001913;28;19925;-67
2022/12/31 12:04:22;;;;;;;;;;;;;;;;;;5001842;28;20567;-64
2022/12/31 12:06:50;;;;;;;;;;;;;;;;;;5022343;28;20070;-65
2022/12/31 12:09:15;;;;;;;;;;;;;;;;;;4985562;28;20530;-65
2022/12/31 12:11:41;;;;;;;;;;;;;;;;;;5002443;28;19970;-66
2022/12/31 12:14:08;;;;;;;;;;;;;;;;;;5003263;28;20402;-65
2022/12/31 12:16:33;;;;;;;;;;;;;;;;;;5006066;28;19947;-64
2022/12/31 12:19:01;;;;;;;;;;;;;;;;;;5002827;28;19921;-62
2022/12/31 12:21:26;;;;;;;;;;;;;;;;;;5025119;28;19928;-66
2022/12/31 12:23:52;;;;;;;;;;;;;;;;;;5023343;28;19951;-65
2022/12/31 12:26:20;;;;;;;;;;;;;;;;;;5004312;28;19920;-63
2022/12/31 12:28:45;;;;;;;;;;;;;;;;;;5024879;28;19920;-65
2022/12/31 12:31:11;;;;;;;;;;;;;;;;;;5004263;28;20041;-65
2022/12/31 12:33:38;;;;;;;;;;;;;;;;;;5002099;28;19927;-66
2022/12/31 12:36:06;;;;;;;;;;;;;;;;;;4986604;28;19921;-66
2022/12/31 12:38:34;;;;;;;;;;;;;;;;;;4986646;28;19931;-65
2022/12/31 12:40:59;;;;;;;;;;;;;;;;;;5005061;28;20052;-65
2022/12/31 12:43:25;;;;;;;;;;;;;;;;;;5023413;28;19936;-66
2022/12/31 12:45:53;;;;;;;;;;;;;;;;;;5018556;28;19917;-68
2022/12/31 12:48:19;;;;;;;;;;;;;;;;;;4987266;28;19967;-65
2022/12/31 12:50:44;;;;;;;;;;;;;;;;;;4986531;28;20514;-66
2022/12/31 12:53:12;;;;;;;;;;;;;;;;;;5024712;28;19921;-67
2022/12/31 12:55:38;;;;;;;;;;;;;;;;;;5004939;28;19925;-69
2022/12/31 12:58:04;;;;;;;;;;;;;;;;;;5005091;28;19923;-65
2022/12/31 13:00:29;;;;;;;;;;;;;;;;;;5001492;28;19928;-65
2022/12/31 13:02:57;;;;;;;;;;;;;;;;;;5003667;28;19916;-66
2022/12/31 13:05:23;;;;;;;;;;;;;;;;;;5004309;28;19932;-67
2022/12/31 13:07:51;;;;;;;;;;;;;;;;;;4987579;28;19921;-65
2022/12/31 13:10:19;;;;;;;;;;;;;;;;;;5004608;28;19924;-66
2022/12/31 13:12:44;;;;;;;;;;;;;;;;;;5020239;28;19921;-65
2022/12/31 13:15:10;;;;;;;;;;;;;;;;;;5002829;28;19921;-65
2022/12/31 13:17:35;;;;;;;;;;;;;;;;;;5004052;28;19932;-65
2022/12/31 13:20:01;;;;;;;;;;;;;;;;;;5002581;28;19973;-66
2022/12/31 13:22:26;;;;;;;;;;;;;;;;;;5006064;28;19921;-67
2022/12/31 13:24:54;;;;;;;;;;;;;;;;;;5000057;28;19921;-66
2022/12/31 13:27:22;;;;;;;;;;;;;;;;;;5002495;28;20565;-70
2022/12/31 13:29:47;;;;;;;;;;;;;;;;;;5022312;28;21538;-67
2022/12/31 13:32:15;;;;;;;;;;;;;;;;;;5023313;28;19956;-67
2022/12/31 13:34:44;;;;;;;;;;;;;;;;;;5004742;28;20085;-69
2022/12/31 13:37:09;;;;;;;;;;;;;;;;;;5003106;28;19925;-64
2022/12/31 13:39:37;;;;;;;;;;;;;;;;;;5004201;28;19921;-64
2022/12/31 13:42:02;;;;;;;;;;;;;;;;;;4989040;28;21430;-65
2022/12/31 13:44:27;;;;;;;;;;;;;;;;;;5000241;28;19925;-64
2022/12/31 13:46:55;;;;;;;;;;;;;;;;;;5003705;28;19916;-63
2022/12/31 13:49:21;;;;;;;;;;;;;;;;;;5018237;28;19928;-63
2022/12/31 13:51:46;;;;;;;;;;;;;;;;;;5023667;28;19921;-66
2022/12/31 13:54:14;;;;;;;;;;;;;;;;;;4995444;28;19944;-64
2022/12/31 13:56:42;;;;;;;;;;;;;;;;;;5003644;28;19981;-64
2022/12/31 13:59:07;;;;;;;;;;;;;;;;;;4986912;28;19921;-68
2022/12/31 14:01:32;;;;;;;;;;;;;;;;;;4984293;28;21414;-65
2022/12/31 14:03:58;;;;;;;;;;;;;;;;;;5001758;28;19921;-64
2022/12/31 14:06:23;;;;;;;;;;;;;;;;;;4985585;28;19947;-63
2022/12/31 14:08:48;;;;;;;;;;;;;;;;;;5021960;28;21547;-66
2022/12/31 14:11:14;;;;;;;;;;;;;;;;;;5021959;28;19929;-67
2022/12/31 14:13:44;;;;;;;;;;;;;;;;;;5000558;28;19940;-64
2022/12/31 14:16:09;;;;;;;;;;;;;;;;;;5000483;28;21531;-68
2022/12/31 14:18:35;;;;;;;;;;;;;;;;;;5001268;28;19924;-67
2022/12/31 14:21:00;;;;;;;;;;;;;;;;;;5002004;28;19921;-64
2022/12/31 14:23:28;;;;;;;;;;;;;;;;;;5003363;28;19952;-64
2022/12/31 14:25:53;;;;;;;;;;;;;;;;;;5001080;28;20540;-64
2022/12/31 14:28:18;;;;;;;;;;;;;;;;;;5002825;28;20007;-64
2022/12/31 14:30:44;;;;;;;;;;;;;;;;;;5000655;28;19971;-65
2022/12/31 14:33:14;;;;;;;;;;;;;;;;;;5018438;28;20023;-65
2022/12/31 14:35:39;;;;;;;;;;;;;;;;;;5019225;28;20008;-65
2022/12/31 14:38:05;;;;;;;;;;;;;;;;;;4998967;28;19931;-65
2022/12/31 14:40:30;;;;;;;;;;;;;;;;;;4986939;28;19916;-67
2022/12/31 14:42:58;;;;;;;;;;;;;;;;;;5002883;28;19963;-65
2022/12/31 14:45:23;;;;;;;;;;;;;;;;;;4999005;28;19932;-67
2022/12/31 14:47:48;;;;;;;;;;;;;;;;;;5023169;28;19921;-68
2022/12/31 14:50:14;;;;;;;;;;;;;;;;;;5001200;28;20564;-65
2022/12/31 14:52:41;;;;;;;;;;;;;;;;;;5004005;28;19963;-66
2022/12/31 14:55:07;;;;;;;;;;;;;;;;;;5003341;28;19921;-66
2022/12/31 14:57:32;;;;;;;;;;;;;;;;;;5003448;28;20037;-64
2022/12/31 15:00:00;;;;;;;;;;;;;;;;;;5022071;28;19963;-67
2022/12/31 15:02:28;;;;;;;;;;;;;;;;;;4999391;28;20016;-65
2022/12/31 15:04:53;;;;;;;;;;;;;;;;;;5002813;28;20901;-66
2022/12/31 15:07:19;;;;;;;;;;;;;;;;;;5021882;28;19928;-66
2022/12/31 15:09:44;;;;;;;;;;;;;;;;;;5003395;28;21844;-67
2022/12/31 15:12:09;;;;;;;;;;;;;;;;;;5002679;28;19932;-65
2022/12/31 15:14:37;;;;;;;;;;;;;;;;;;5017488;28;20270;-65
2022/12/31 15:17:04;;;;;;;;;;;;;;;;;;5022032;28;20003;-66
2022/12/31 15:19:29;;;;;;;;;;;;;;;;;;5002069;28;20310;-66
2022/12/31 15:21:55;;;;;;;;;;;;;;;;;;5002023;28;19918;-65
2022/12/31 15:24:21;;;;;;;;;;;;;;;;;;5002157;28;20400;-67
2022/12/31 15:26:47;;;;;;;;;;;;;;;;;;5001540;28;19921;-71
2022/12/31 15:29:12;;;;;;;;;;;;;;;;;;5020453;28;19978;-65
2022/12/31 15:31:40;;;;;;;;;;;;;;;;;;5001504;28;19960;-67
2022/12/31 15:34:05;;;;;;;;;;;;;;;;;;5000744;28;20057;-67
2022/12/31 15:36:30;;;;;;;;;;;;;;;;;;5022021;28;19983;-66
2022/12/31 15:38:56;;;;;;;;;;;;;;;;;;5000186;28;19967;-66
2022/12/31 15:41:21;;;;;;;;;;;;;;;;;;5020925;28;19927;-66
2022/12/31 15:43:49;;;;;;;;;;;;;;;;;;5019623;28;19928;-66
2022/12/31 15:46:17;;;;;;;;;;;;;;;;;;5018925;28;20043;-65
2022/12/31 15:48:42;;;;;;;;;;;;;;;;;;5004632;28;19925;-65
2022/12/31 15:51:08;;;;;;;;;;;;;;;;;;5023805;28;19943;-67
2022/12/31 15:53:33;;;;;;;;;;;;;;;;;;5026480;28;20312;-65
2022/12/31 15:55:59;;;;;;;;;;;;;;;;;;5025779;28;19932;-65
2022/12/31 15:58:25;;;;;;;;;;;;;;;;;;5025610;28;19917;-66
2022/12/31 16:00:50;;;;;;;;;;;;;;;;;;4989261;28;20304;-64
2022/12/31 16:03:15;;;;;;;;;;;;;;;;;;5023078;28;20032;-67
2022/12/31 16:05:43;;;;;;;;;;;;;;;;;;5025429;28;20297;-69
2022/12/31 16:08:09;;;;;;;;;;;;;;;;;;5005138;28;20411;-68
2022/12/31 16:10:34;;;;;;;;;;;;;;;;;;5024501;28;19925;-65
2022/12/31 16:13:00;;;;;;;;;;;;;;;;;;5006792;28;20513;-66
2022/12/31 16:15:27;;;;;;;;;;;;;;;;;;5004202;28;20358;-65
2022/12/31 16:17:55;;;;;;;;;;;;;;;;;;5025944;28;19924;-66
2022/12/31 16:20:22;;;;;;;;;;;;;;;;;;5002966;28;20339;-69
2022/12/31 16:22:48;;;;;;;;;;;;;;;;;;5025348;28;19928;-67
2022/12/31 16:25:14;;;;;;;;;;;;;;;;;;5025741;28;20528;-66
2022/12/31 16:27:39;;;;;;;;;;;;;;;;;;5024505;28;20409;-66
2022/12/31 16:30:05;;;;;;;;;;;;;;;;;;5006036;28;20011;-64
2022/12/31 16:32:31;;;;;;;;;;;;;;;;;;4987863;28;19917;-65
2022/12/31 16:34:59;;;;;;;;;;;;;;;;;;5025134;28;19917;-65
2022/12/31 16:37:26;;;;;;;;;;;;;;;;;;5023785;28;19927;-65
2022/12/31 16:39:54;;;;;;;;;;;;;;;;;;5006544;28;19928;-66
2022/12/31 16:42:19;;;;;;;;;;;;;;;;;;5005565;28;19937;-66
2022/12/31 16:44:45;;;;;;;;;;;;;;;;;;5002668;28;19921;-66
2022/12/31 16:47:12;;;;;;;;;;;;;;;;;;4990590;28;19920;-66
2022/12/31 16:49:38;;;;;;;;;;;;;;;;;;5397506;22;19918;-65
2022/12/31 16:52:06;;;;;;;;;;;;;;;;;;4998878;28;20362;-67
2022/12/31 16:54:34;;;;;;;;;;;;;;;;;;5007678;28;19968;-68
2022/12/31 17:00:19;;;;;;;;;;;;;;;;;;5021280;28;20302;-66
2022/12/31 17:02:45;;;;;;;;;;;;;;;;;;5009077;28;20125;-68
2022/12/31 17:05:10;;;;;;;;;;;;;;;;;;4987799;28;20413;-67
2022/12/31 17:07:35;;;;;;;;;;;;;;;;;;5016785;28;19920;-66
2022/12/31 17:10:00;;;;;;;;;;;;;;;;;;5004217;28;19921;-66
2022/12/31 17:12:27;;;;;;;;;;;;;;;;;;5014999;28;20279;-66
2022/12/31 17:14:53;;;;;;;;;;;;;;;;;;5019323;28;20386;-66
2022/12/31 17:17:18;;;;;;;;;;;;;;;;;;5017356;28;19921;-66
2022/12/31 17:19:44;;;;;;;;;;;;;;;;;;5014286;28;19921;-65
2022/12/31 17:22:10;;;;;;;;;;;;;;;;;;5015747;28;19917;-65
2022/12/31 17:24:35;;;;;;;;;;;;;;;;;;4981761;28;19917;-66
2022/12/31 17:27:00;;;;;;;;;;;;;;;;;;5016707;28;22291;-66